sensor_id;sensor_type;location;lat;lon;timestamp;P1;durP1;ratioP1;P2;durP2;ratioP2
13291;SDS011;6714;53.056;8.690;2022-11-20T00:00:26;15.80;;;11.83;;
13291;SDS011;6714;53.056;8.690;2022-11-20T00:03:09;18.50;;;12.37;;
13291;SDS011;6714;53.056;8.690;2022-11-20T00:05:51;15.73;;;11.40;;
13291;SDS011;6714;53.056;8.690;2022-11-20T00:08:34;16.33;;;12.20;;
13291;SDS011;6714;53.056;8.690;2022-11-20T00:11:18;19.30;;;13.23;;
13291;SDS011;6714;53.056;8.690;2022-11-20T00:14:01;15.70;;;11.60;;
13291;SDS011;6714;53.056;8.690;2022-11-20T00:16:43;17.53;;;12.67;;
13291;SDS011;6714;53.056;8.690;2022-11-20T00:19:25;16.67;;;11.90;;
13291;SDS011;6714;53.056;8.690;2022-11-20T00:22:07;17.33;;;12.80;;
13291;SDS011;6714;53.056;8.690;2022-11-20T00:24:51;17.83;;;12.87;;
13291;SDS011;6714;53.056;8.690;2022-11-20T00:27:33;15.50;;;12.10;;
13291;SDS011;6714;53.056;8.690;2022-11-20T00:30:15;20.83;;;13.87;;
13291;SDS011;6714;53.056;8.690;2022-11-20T00:32:57;17.93;;;13.50;;
13291;SDS011;6714;53.056;8.690;2022-11-20T00:35:40;19.00;;;12.87;;
13291;SDS011;6714;53.056;8.690;2022-11-20T00:38:22;17.63;;;13.50;;
13291;SDS011;6714;53.056;8.690;2022-11-20T00:41:06;20.33;;;14.23;;
13291;SDS011;6714;53.056;8.690;2022-11-20T00:43:48;22.10;;;14.27;;
13291;SDS011;6714;53.056;8.690;2022-11-20T00:46:31;17.07;;;12.40;;
13291;SDS011;6714;53.056;8.690;2022-11-20T00:49:13;19.30;;;13.47;;
13291;SDS011;6714;53.056;8.690;2022-11-20T00:51:55;19.40;;;13.67;;
13291;SDS011;6714;53.056;8.690;2022-11-20T00:54:37;16.53;;;12.67;;
13291;SDS011;6714;53.056;8.690;2022-11-20T00:57:21;17.67;;;12.73;;
13291;SDS011;6714;53.056;8.690;2022-11-20T01:00:03;18.10;;;12.57;;
13291;SDS011;6714;53.056;8.690;2022-11-20T01:02:46;18.87;;;13.17;;
13291;SDS011;6714;53.056;8.690;2022-11-20T01:05:28;17.33;;;12.33;;
13291;SDS011;6714;53.056;8.690;2022-11-20T01:08:10;17.83;;;12.00;;
13291;SDS011;6714;53.056;8.690;2022-11-20T01:10:52;20.43;;;13.57;;
13291;SDS011;6714;53.056;8.690;2022-11-20T01:13:36;16.90;;;12.50;;
13291;SDS011;6714;53.056;8.690;2022-11-20T01:16:20;16.07;;;13.03;;
13291;SDS011;6714;53.056;8.690;2022-11-20T01:19:04;18.03;;;12.63;;
13291;SDS011;6714;53.056;8.690;2022-11-20T01:21:47;19.23;;;13.13;;
13291;SDS011;6714;53.056;8.690;2022-11-20T01:24:30;19.10;;;13.80;;
13291;SDS011;6714;53.056;8.690;2022-11-20T01:27:12;21.93;;;14.27;;
13291;SDS011;6714;53.056;8.690;2022-11-20T01:29:55;19.13;;;12.97;;
13291;SDS011;6714;53.056;8.690;2022-11-20T01:32:38;17.17;;;13.23;;
13291;SDS011;6714;53.056;8.690;2022-11-20T01:35:20;19.33;;;13.37;;
13291;SDS011;6714;53.056;8.690;2022-11-20T01:38:02;17.93;;;12.93;;
13291;SDS011;6714;53.056;8.690;2022-11-20T01:40:44;18.10;;;12.73;;
13291;SDS011;6714;53.056;8.690;2022-11-20T01:43:26;15.03;;;12.17;;
13291;SDS011;6714;53.056;8.690;2022-11-20T01:46:19;17.77;;;12.37;;
13291;SDS011;6714;53.056;8.690;2022-11-20T01:49:02;16.30;;;12.10;;
13291;SDS011;6714;53.056;8.690;2022-11-20T01:51:46;16.57;;;12.40;;
13291;SDS011;6714;53.056;8.690;2022-11-20T01:54:30;14.97;;;11.10;;
13291;SDS011;6714;53.056;8.690;2022-11-20T01:57:16;16.43;;;12.67;;
13291;SDS011;6714;53.056;8.690;2022-11-20T01:59:59;16.47;;;12.37;;
13291;SDS011;6714;53.056;8.690;2022-11-20T02:02:43;19.07;;;13.20;;
13291;SDS011;6714;53.056;8.690;2022-11-20T02:05:31;20.63;;;13.70;;
13291;SDS011;6714;53.056;8.690;2022-11-20T02:08:14;20.80;;;14.60;;
13291;SDS011;6714;53.056;8.690;2022-11-20T02:10:57;20.57;;;14.43;;
13291;SDS011;6714;53.056;8.690;2022-11-20T02:13:39;17.60;;;12.67;;
13291;SDS011;6714;53.056;8.690;2022-11-20T02:16:24;22.63;;;15.53;;
13291;SDS011;6714;53.056;8.690;2022-11-20T02:19:09;29.20;;;18.13;;
13291;SDS011;6714;53.056;8.690;2022-11-20T02:21:56;29.13;;;19.43;;
13291;SDS011;6714;53.056;8.690;2022-11-20T02:24:42;19.53;;;14.17;;
13291;SDS011;6714;53.056;8.690;2022-11-20T02:27:25;32.70;;;19.33;;
13291;SDS011;6714;53.056;8.690;2022-11-20T02:30:08;29.93;;;17.77;;
13291;SDS011;6714;53.056;8.690;2022-11-20T02:32:52;24.43;;;14.60;;
13291;SDS011;6714;53.056;8.690;2022-11-20T02:35:41;23.03;;;13.83;;
13291;SDS011;6714;53.056;8.690;2022-11-20T02:38:23;25.50;;;16.43;;
13291;SDS011;6714;53.056;8.690;2022-11-20T02:41:07;24.43;;;15.73;;
13291;SDS011;6714;53.056;8.690;2022-11-20T02:43:49;18.47;;;12.43;;
13291;SDS011;6714;53.056;8.690;2022-11-20T02:46:32;15.80;;;10.80;;
13291;SDS011;6714;53.056;8.690;2022-11-20T02:49:14;23.03;;;14.40;;
13291;SDS011;6714;53.056;8.690;2022-11-20T02:51:56;21.03;;;14.87;;
13291;SDS011;6714;53.056;8.690;2022-11-20T02:54:39;22.63;;;14.67;;
13291;SDS011;6714;53.056;8.690;2022-11-20T02:57:22;23.87;;;14.83;;
13291;SDS011;6714;53.056;8.690;2022-11-20T03:00:05;19.50;;;13.40;;
13291;SDS011;6714;53.056;8.690;2022-11-20T03:02:47;18.53;;;12.47;;
13291;SDS011;6714;53.056;8.690;2022-11-20T03:05:30;14.27;;;9.80;;
13291;SDS011;6714;53.056;8.690;2022-11-20T03:08:12;17.97;;;11.37;;
13291;SDS011;6714;53.056;8.690;2022-11-20T03:10:54;16.50;;;11.77;;
13291;SDS011;6714;53.056;8.690;2022-11-20T03:13:37;17.40;;;11.97;;
13291;SDS011;6714;53.056;8.690;2022-11-20T03:16:21;16.57;;;11.03;;
13291;SDS011;6714;53.056;8.690;2022-11-20T03:19:03;16.67;;;11.40;;
13291;SDS011;6714;53.056;8.690;2022-11-20T03:21:45;12.70;;;9.23;;
13291;SDS011;6714;53.056;8.690;2022-11-20T03:24:27;13.37;;;9.77;;
13291;SDS011;6714;53.056;8.690;2022-11-20T03:27:10;12.43;;;9.30;;
13291;SDS011;6714;53.056;8.690;2022-11-20T03:29:53;15.83;;;10.57;;
13291;SDS011;6714;53.056;8.690;2022-11-20T03:32:35;13.73;;;9.90;;
13291;SDS011;6714;53.056;8.690;2022-11-20T03:35:17;13.50;;;10.00;;
13291;SDS011;6714;53.056;8.690;2022-11-20T03:38:00;12.53;;;9.37;;
13291;SDS011;6714;53.056;8.690;2022-11-20T03:40:42;13.97;;;9.90;;
13291;SDS011;6714;53.056;8.690;2022-11-20T03:43:24;13.97;;;10.43;;
13291;SDS011;6714;53.056;8.690;2022-11-20T03:46:07;13.23;;;9.50;;
13291;SDS011;6714;53.056;8.690;2022-11-20T03:48:50;14.50;;;9.20;;
13291;SDS011;6714;53.056;8.690;2022-11-20T03:51:32;10.83;;;8.07;;
13291;SDS011;6714;53.056;8.690;2022-11-20T03:54:15;12.33;;;9.27;;
13291;SDS011;6714;53.056;8.690;2022-11-20T03:56:57;12.30;;;8.10;;
13291;SDS011;6714;53.056;8.690;2022-11-20T03:59:39;12.30;;;8.90;;
13291;SDS011;6714;53.056;8.690;2022-11-20T04:02:23;11.77;;;8.77;;
13291;SDS011;6714;53.056;8.690;2022-11-20T04:05:05;13.60;;;8.80;;
13291;SDS011;6714;53.056;8.690;2022-11-20T04:07:48;10.40;;;8.10;;
13291;SDS011;6714;53.056;8.690;2022-11-20T04:10:30;13.00;;;8.33;;
13291;SDS011;6714;53.056;8.690;2022-11-20T04:13:12;14.03;;;8.97;;
13291;SDS011;6714;53.056;8.690;2022-11-20T04:15:56;11.93;;;9.20;;
13291;SDS011;6714;53.056;8.690;2022-11-20T04:18:40;11.43;;;8.27;;
13291;SDS011;6714;53.056;8.690;2022-11-20T04:21:23;11.33;;;9.13;;
13291;SDS011;6714;53.056;8.690;2022-11-20T04:24:06;12.53;;;8.03;;
13291;SDS011;6714;53.056;8.690;2022-11-20T04:26:48;8.30;;;6.60;;
13291;SDS011;6714;53.056;8.690;2022-11-20T04:29:30;11.43;;;8.03;;
13291;SDS011;6714;53.056;8.690;2022-11-20T04:32:13;11.30;;;9.10;;
13291;SDS011;6714;53.056;8.690;2022-11-20T04:34:56;12.10;;;8.80;;
13291;SDS011;6714;53.056;8.690;2022-11-20T04:37:38;11.77;;;8.43;;
13291;SDS011;6714;53.056;8.690;2022-11-20T04:40:20;10.83;;;8.17;;
13291;SDS011;6714;53.056;8.690;2022-11-20T04:43:02;14.40;;;8.93;;
13291;SDS011;6714;53.056;8.690;2022-11-20T04:45:49;9.00;;;6.70;;
13291;SDS011;6714;53.056;8.690;2022-11-20T04:48:32;12.33;;;8.67;;
13291;SDS011;6714;53.056;8.690;2022-11-20T04:51:15;12.33;;;8.30;;
13291;SDS011;6714;53.056;8.690;2022-11-20T04:53:57;9.87;;;7.53;;
13291;SDS011;6714;53.056;8.690;2022-11-20T04:56:40;11.50;;;8.63;;
13291;SDS011;6714;53.056;8.690;2022-11-20T04:59:22;9.60;;;7.27;;
13291;SDS011;6714;53.056;8.690;2022-11-20T05:02:04;11.20;;;8.20;;
13291;SDS011;6714;53.056;8.690;2022-11-20T05:04:46;11.30;;;8.00;;
13291;SDS011;6714;53.056;8.690;2022-11-20T05:07:30;10.43;;;7.87;;
13291;SDS011;6714;53.056;8.690;2022-11-20T05:10:12;10.20;;;7.83;;
13291;SDS011;6714;53.056;8.690;2022-11-20T05:12:54;11.13;;;7.83;;
13291;SDS011;6714;53.056;8.690;2022-11-20T05:15:36;11.30;;;7.57;;
13291;SDS011;6714;53.056;8.690;2022-11-20T05:18:18;7.80;;;6.30;;
13291;SDS011;6714;53.056;8.690;2022-11-20T05:21:01;7.87;;;6.33;;
13291;SDS011;6714;53.056;8.690;2022-11-20T05:23:44;8.93;;;7.03;;
13291;SDS011;6714;53.056;8.690;2022-11-20T05:26:27;9.87;;;7.73;;
13291;SDS011;6714;53.056;8.690;2022-11-20T05:29:09;9.27;;;6.90;;
13291;SDS011;6714;53.056;8.690;2022-11-20T05:31:52;10.47;;;7.90;;
13291;SDS011;6714;53.056;8.690;2022-11-20T05:34:34;9.77;;;7.90;;
13291;SDS011;6714;53.056;8.690;2022-11-20T05:37:17;9.30;;;6.47;;
13291;SDS011;6714;53.056;8.690;2022-11-20T05:40:00;9.73;;;7.10;;
13291;SDS011;6714;53.056;8.690;2022-11-20T05:42:42;11.27;;;7.67;;
13291;SDS011;6714;53.056;8.690;2022-11-20T05:45:25;10.70;;;7.90;;
13291;SDS011;6714;53.056;8.690;2022-11-20T05:48:07;11.23;;;8.50;;
13291;SDS011;6714;53.056;8.690;2022-11-20T05:50:49;6.87;;;6.20;;
13291;SDS011;6714;53.056;8.690;2022-11-20T05:53:31;10.47;;;7.40;;
13291;SDS011;6714;53.056;8.690;2022-11-20T05:56:15;12.80;;;8.37;;
13291;SDS011;6714;53.056;8.690;2022-11-20T05:58:58;7.17;;;6.33;;
13291;SDS011;6714;53.056;8.690;2022-11-20T06:01:40;10.17;;;7.33;;
13291;SDS011;6714;53.056;8.690;2022-11-20T06:04:22;9.70;;;7.80;;
13291;SDS011;6714;53.056;8.690;2022-11-20T06:07:04;10.30;;;7.90;;
13291;SDS011;6714;53.056;8.690;2022-11-20T06:09:46;10.97;;;8.30;;
13291;SDS011;6714;53.056;8.690;2022-11-20T06:12:31;9.70;;;6.93;;
13291;SDS011;6714;53.056;8.690;2022-11-20T06:15:14;9.47;;;7.37;;
13291;SDS011;6714;53.056;8.690;2022-11-20T06:17:56;10.10;;;8.17;;
13291;SDS011;6714;53.056;8.690;2022-11-20T06:20:38;9.13;;;7.47;;
13291;SDS011;6714;53.056;8.690;2022-11-20T06:23:21;9.23;;;7.30;;
13291;SDS011;6714;53.056;8.690;2022-11-20T06:26:03;11.70;;;8.27;;
13291;SDS011;6714;53.056;8.690;2022-11-20T06:28:47;8.73;;;7.50;;
13291;SDS011;6714;53.056;8.690;2022-11-20T06:31:29;11.00;;;7.37;;
13291;SDS011;6714;53.056;8.690;2022-11-20T06:34:14;9.27;;;7.53;;
13291;SDS011;6714;53.056;8.690;2022-11-20T06:36:57;8.80;;;6.30;;
13291;SDS011;6714;53.056;8.690;2022-11-20T06:39:39;9.00;;;7.13;;
13291;SDS011;6714;53.056;8.690;2022-11-20T06:42:21;11.77;;;8.77;;
13291;SDS011;6714;53.056;8.690;2022-11-20T06:45:05;11.43;;;8.93;;
13291;SDS011;6714;53.056;8.690;2022-11-20T06:47:47;10.90;;;8.60;;
13291;SDS011;6714;53.056;8.690;2022-11-20T06:50:29;11.60;;;8.87;;
13291;SDS011;6714;53.056;8.690;2022-11-20T06:53:12;11.23;;;8.07;;
13291;SDS011;6714;53.056;8.690;2022-11-20T06:55:55;11.80;;;8.87;;
13291;SDS011;6714;53.056;8.690;2022-11-20T06:58:37;7.40;;;6.20;;
13291;SDS011;6714;53.056;8.690;2022-11-20T07:01:21;12.43;;;8.27;;
13291;SDS011;6714;53.056;8.690;2022-11-20T07:04:03;10.63;;;8.07;;
13291;SDS011;6714;53.056;8.690;2022-11-20T07:06:45;10.47;;;7.87;;
13291;SDS011;6714;53.056;8.690;2022-11-20T07:09:28;7.83;;;6.63;;
13291;SDS011;6714;53.056;8.690;2022-11-20T07:12:10;8.03;;;6.27;;
13291;SDS011;6714;53.056;8.690;2022-11-20T07:14:52;8.57;;;6.43;;
13291;SDS011;6714;53.056;8.690;2022-11-20T07:17:36;12.13;;;8.53;;
13291;SDS011;6714;53.056;8.690;2022-11-20T07:20:18;12.57;;;9.10;;
13291;SDS011;6714;53.056;8.690;2022-11-20T07:23:00;9.13;;;7.10;;
13291;SDS011;6714;53.056;8.690;2022-11-20T07:25:42;11.33;;;8.77;;
13291;SDS011;6714;53.056;8.690;2022-11-20T07:28:25;12.47;;;8.50;;
13291;SDS011;6714;53.056;8.690;2022-11-20T07:31:07;12.53;;;9.47;;
13291;SDS011;6714;53.056;8.690;2022-11-20T07:33:50;11.80;;;9.23;;
13291;SDS011;6714;53.056;8.690;2022-11-20T07:36:32;13.30;;;9.13;;
13291;SDS011;6714;53.056;8.690;2022-11-20T07:39:15;11.67;;;8.47;;
13291;SDS011;6714;53.056;8.690;2022-11-20T07:41:57;11.03;;;8.63;;
13291;SDS011;6714;53.056;8.690;2022-11-20T07:44:39;13.37;;;9.93;;
13291;SDS011;6714;53.056;8.690;2022-11-20T07:47:21;10.67;;;8.00;;
13291;SDS011;6714;53.056;8.690;2022-11-20T07:50:05;9.53;;;7.57;;
13291;SDS011;6714;53.056;8.690;2022-11-20T07:52:47;13.37;;;9.83;;
13291;SDS011;6714;53.056;8.690;2022-11-20T07:55:30;10.57;;;7.83;;
13291;SDS011;6714;53.056;8.690;2022-11-20T07:58:13;11.03;;;8.20;;
13291;SDS011;6714;53.056;8.690;2022-11-20T08:00:55;13.37;;;9.70;;
13291;SDS011;6714;53.056;8.690;2022-11-20T08:03:37;11.53;;;8.47;;
13291;SDS011;6714;53.056;8.690;2022-11-20T08:06:21;11.47;;;8.87;;
13291;SDS011;6714;53.056;8.690;2022-11-20T08:09:04;10.20;;;8.53;;
13291;SDS011;6714;53.056;8.690;2022-11-20T08:11:47;13.47;;;10.13;;
13291;SDS011;6714;53.056;8.690;2022-11-20T08:14:46;11.37;;;9.47;;
13291;SDS011;6714;53.056;8.690;2022-11-20T08:17:29;12.43;;;9.30;;
13291;SDS011;6714;53.056;8.690;2022-11-20T08:20:11;13.87;;;10.40;;
13291;SDS011;6714;53.056;8.690;2022-11-20T08:22:58;11.73;;;8.80;;
13291;SDS011;6714;53.056;8.690;2022-11-20T08:25:41;12.23;;;8.50;;
13291;SDS011;6714;53.056;8.690;2022-11-20T08:28:23;13.23;;;9.40;;
13291;SDS011;6714;53.056;8.690;2022-11-20T08:31:05;11.87;;;9.43;;
13291;SDS011;6714;53.056;8.690;2022-11-20T08:33:47;10.13;;;8.43;;
13291;SDS011;6714;53.056;8.690;2022-11-20T08:36:32;13.93;;;9.60;;
13291;SDS011;6714;53.056;8.690;2022-11-20T08:39:15;9.93;;;8.37;;
13291;SDS011;6714;53.056;8.690;2022-11-20T08:41:58;14.10;;;9.50;;
13291;SDS011;6714;53.056;8.690;2022-11-20T08:44:40;13.47;;;9.70;;
13291;SDS011;6714;53.056;8.690;2022-11-20T08:47:23;11.33;;;8.13;;
13291;SDS011;6714;53.056;8.690;2022-11-20T08:50:05;9.13;;;6.93;;
13291;SDS011;6714;53.056;8.690;2022-11-20T08:52:48;10.17;;;7.63;;
13291;SDS011;6714;53.056;8.690;2022-11-20T08:55:31;11.20;;;8.43;;
13291;SDS011;6714;53.056;8.690;2022-11-20T08:58:15;9.73;;;7.93;;
13291;SDS011;6714;53.056;8.690;2022-11-20T09:00:57;12.27;;;9.57;;
13291;SDS011;6714;53.056;8.690;2022-11-20T09:03:39;11.60;;;9.43;;
13291;SDS011;6714;53.056;8.690;2022-11-20T09:06:21;11.40;;;8.67;;
13291;SDS011;6714;53.056;8.690;2022-11-20T09:09:04;9.53;;;7.53;;
13291;SDS011;6714;53.056;8.690;2022-11-20T09:11:47;13.40;;;10.37;;
13291;SDS011;6714;53.056;8.690;2022-11-20T09:14:31;13.13;;;9.77;;
13291;SDS011;6714;53.056;8.690;2022-11-20T09:17:13;7.40;;;5.67;;
13291;SDS011;6714;53.056;8.690;2022-11-20T09:19:55;14.27;;;9.73;;
13291;SDS011;6714;53.056;8.690;2022-11-20T09:22:39;9.20;;;7.37;;
13291;SDS011;6714;53.056;8.690;2022-11-20T09:25:21;6.83;;;5.90;;
13291;SDS011;6714;53.056;8.690;2022-11-20T09:28:05;7.67;;;6.87;;
13291;SDS011;6714;53.056;8.690;2022-11-20T09:30:47;9.37;;;7.17;;
13291;SDS011;6714;53.056;8.690;2022-11-20T09:33:29;10.43;;;7.80;;
13291;SDS011;6714;53.056;8.690;2022-11-20T09:36:11;7.77;;;6.50;;
13291;SDS011;6714;53.056;8.690;2022-11-20T09:38:54;7.73;;;6.17;;
13291;SDS011;6714;53.056;8.690;2022-11-20T09:41:41;11.07;;;8.80;;
13291;SDS011;6714;53.056;8.690;2022-11-20T09:44:32;6.47;;;5.77;;
13291;SDS011;6714;53.056;8.690;2022-11-20T09:47:20;9.17;;;7.10;;
13291;SDS011;6714;53.056;8.690;2022-11-20T09:50:10;10.50;;;8.17;;
13291;SDS011;6714;53.056;8.690;2022-11-20T09:52:57;8.93;;;6.90;;
13291;SDS011;6714;53.056;8.690;2022-11-20T09:55:42;11.73;;;8.93;;
13291;SDS011;6714;53.056;8.690;2022-11-20T09:58:27;12.73;;;9.00;;
13291;SDS011;6714;53.056;8.690;2022-11-20T10:01:13;12.17;;;9.77;;
13291;SDS011;6714;53.056;8.690;2022-11-20T10:03:57;10.47;;;8.20;;
13291;SDS011;6714;53.056;8.690;2022-11-20T10:06:41;10.77;;;7.97;;
13291;SDS011;6714;53.056;8.690;2022-11-20T10:09:27;11.90;;;10.10;;
13291;SDS011;6714;53.056;8.690;2022-11-20T10:12:12;10.70;;;8.60;;
13291;SDS011;6714;53.056;8.690;2022-11-20T10:14:58;14.43;;;10.37;;
13291;SDS011;6714;53.056;8.690;2022-11-20T10:20:54;9.97;;;8.00;;
13291;SDS011;6714;53.056;8.690;2022-11-20T10:23:45;10.30;;;7.57;;
13291;SDS011;6714;53.056;8.690;2022-11-20T10:26:31;13.57;;;10.40;;
13291;SDS011;6714;53.056;8.690;2022-11-20T10:29:21;11.30;;;9.73;;
13291;SDS011;6714;53.056;8.690;2022-11-20T10:32:09;10.63;;;8.30;;
13291;SDS011;6714;53.056;8.690;2022-11-20T10:34:54;13.20;;;8.93;;
13291;SDS011;6714;53.056;8.690;2022-11-20T10:37:41;11.57;;;8.47;;
13291;SDS011;6714;53.056;8.690;2022-11-20T10:40:27;12.00;;;9.63;;
13291;SDS011;6714;53.056;8.690;2022-11-20T10:43:12;11.20;;;8.83;;
13291;SDS011;6714;53.056;8.690;2022-11-20T10:45:56;8.70;;;7.80;;
13291;SDS011;6714;53.056;8.690;2022-11-20T10:48:39;9.50;;;7.97;;
13291;SDS011;6714;53.056;8.690;2022-11-20T10:51:30;7.40;;;6.23;;
13291;SDS011;6714;53.056;8.690;2022-11-20T10:54:17;12.60;;;9.20;;
13291;SDS011;6714;53.056;8.690;2022-11-20T10:57:03;9.70;;;7.70;;
13291;SDS011;6714;53.056;8.690;2022-11-20T10:59:51;9.27;;;7.87;;
13291;SDS011;6714;53.056;8.690;2022-11-20T11:02:37;9.70;;;7.87;;
13291;SDS011;6714;53.056;8.690;2022-11-20T11:05:23;8.43;;;7.23;;
13291;SDS011;6714;53.056;8.690;2022-11-20T11:08:10;10.07;;;8.20;;
13291;SDS011;6714;53.056;8.690;2022-11-20T11:10:55;7.37;;;5.87;;
13291;SDS011;6714;53.056;8.690;2022-11-20T11:13:39;8.93;;;7.40;;
13291;SDS011;6714;53.056;8.690;2022-11-20T11:16:21;10.23;;;8.00;;
13291;SDS011;6714;53.056;8.690;2022-11-20T11:19:04;8.10;;;6.83;;
13291;SDS011;6714;53.056;8.690;2022-11-20T11:21:47;11.40;;;7.93;;
13291;SDS011;6714;53.056;8.690;2022-11-20T11:24:29;9.90;;;7.60;;
13291;SDS011;6714;53.056;8.690;2022-11-20T11:27:14;8.87;;;7.63;;
13291;SDS011;6714;53.056;8.690;2022-11-20T11:30:11;8.13;;;6.40;;
13291;SDS011;6714;53.056;8.690;2022-11-20T11:33:04;8.43;;;7.50;;
13291;SDS011;6714;53.056;8.690;2022-11-20T11:35:48;9.13;;;7.63;;
13291;SDS011;6714;53.056;8.690;2022-11-20T11:38:34;10.57;;;8.10;;
13291;SDS011;6714;53.056;8.690;2022-11-20T11:41:17;9.23;;;7.53;;
13291;SDS011;6714;53.056;8.690;2022-11-20T11:44:03;7.47;;;6.23;;
13291;SDS011;6714;53.056;8.690;2022-11-20T11:47:18;7.73;;;6.40;;
13291;SDS011;6714;53.056;8.690;2022-11-20T11:50:02;11.23;;;8.27;;
13291;SDS011;6714;53.056;8.690;2022-11-20T11:55:54;8.77;;;7.43;;
13291;SDS011;6714;53.056;8.690;2022-11-20T11:58:41;9.00;;;7.80;;
13291;SDS011;6714;53.056;8.690;2022-11-20T12:01:27;6.90;;;6.17;;
13291;SDS011;6714;53.056;8.690;2022-11-20T12:04:13;8.50;;;7.17;;
13291;SDS011;6714;53.056;8.690;2022-11-20T12:06:58;6.77;;;6.03;;
13291;SDS011;6714;53.056;8.690;2022-11-20T12:09:43;10.23;;;8.30;;
13291;SDS011;6714;53.056;8.690;2022-11-20T12:12:27;8.23;;;6.97;;
13291;SDS011;6714;53.056;8.690;2022-11-20T12:15:13;7.63;;;6.83;;
13291;SDS011;6714;53.056;8.690;2022-11-20T12:17:59;8.20;;;7.20;;
13291;SDS011;6714;53.056;8.690;2022-11-20T12:20:41;8.40;;;7.40;;
13291;SDS011;6714;53.056;8.690;2022-11-20T12:23:28;10.17;;;8.33;;
13291;SDS011;6714;53.056;8.690;2022-11-20T12:26:15;10.00;;;7.43;;
13291;SDS011;6714;53.056;8.690;2022-11-20T12:29:04;8.87;;;7.00;;
13291;SDS011;6714;53.056;8.690;2022-11-20T12:31:55;9.50;;;7.93;;
13291;SDS011;6714;53.056;8.690;2022-11-20T12:34:45;10.90;;;8.23;;
13291;SDS011;6714;53.056;8.690;2022-11-20T12:37:31;10.97;;;7.80;;
13291;SDS011;6714;53.056;8.690;2022-11-20T12:40:22;10.17;;;7.70;;
13291;SDS011;6714;53.056;8.690;2022-11-20T12:43:06;10.23;;;8.50;;
13291;SDS011;6714;53.056;8.690;2022-11-20T12:46:17;9.10;;;7.20;;
13291;SDS011;6714;53.056;8.690;2022-11-20T12:49:19;7.27;;;6.40;;
13291;SDS011;6714;53.056;8.690;2022-11-20T12:52:13;9.07;;;7.37;;
13291;SDS011;6714;53.056;8.690;2022-11-20T12:55:05;10.20;;;8.10;;
13291;SDS011;6714;53.056;8.690;2022-11-20T12:57:51;8.83;;;7.30;;
13291;SDS011;6714;53.056;8.690;2022-11-20T13:00:35;11.00;;;8.30;;
13291;SDS011;6714;53.056;8.690;2022-11-20T13:03:31;10.10;;;8.20;;
13291;SDS011;6714;53.056;8.690;2022-11-20T13:06:16;11.97;;;8.90;;
13291;SDS011;6714;53.056;8.690;2022-11-20T13:09:00;10.00;;;8.37;;
13291;SDS011;6714;53.056;8.690;2022-11-20T13:11:44;10.67;;;8.30;;
13291;SDS011;6714;53.056;8.690;2022-11-20T13:14:30;9.77;;;8.00;;
13291;SDS011;6714;53.056;8.690;2022-11-20T13:17:16;10.63;;;8.47;;
13291;SDS011;6714;53.056;8.690;2022-11-20T13:20:02;9.33;;;8.07;;
13291;SDS011;6714;53.056;8.690;2022-11-20T13:22:45;11.13;;;7.97;;
13291;SDS011;6714;53.056;8.690;2022-11-20T13:25:30;8.20;;;7.30;;
13291;SDS011;6714;53.056;8.690;2022-11-20T13:28:26;10.37;;;8.07;;
13291;SDS011;6714;53.056;8.690;2022-11-20T13:31:09;9.97;;;7.43;;
13291;SDS011;6714;53.056;8.690;2022-11-20T13:34:05;12.47;;;8.63;;
13291;SDS011;6714;53.056;8.690;2022-11-20T13:36:49;10.90;;;7.90;;
13291;SDS011;6714;53.056;8.690;2022-11-20T13:39:32;9.93;;;8.07;;
13291;SDS011;6714;53.056;8.690;2022-11-20T13:42:22;13.17;;;8.63;;
13291;SDS011;6714;53.056;8.690;2022-11-20T13:45:08;9.67;;;7.47;;
13291;SDS011;6714;53.056;8.690;2022-11-20T13:47:51;10.23;;;8.20;;
13291;SDS011;6714;53.056;8.690;2022-11-20T13:50:39;10.37;;;8.30;;
13291;SDS011;6714;53.056;8.690;2022-11-20T13:53:26;12.03;;;8.70;;
13291;SDS011;6714;53.056;8.690;2022-11-20T13:56:11;9.23;;;7.90;;
13291;SDS011;6714;53.056;8.690;2022-11-20T13:59:02;10.57;;;8.20;;
13291;SDS011;6714;53.056;8.690;2022-11-20T14:01:47;10.13;;;8.37;;
13291;SDS011;6714;53.056;8.690;2022-11-20T14:04:32;9.60;;;8.03;;
13291;SDS011;6714;53.056;8.690;2022-11-20T14:07:15;10.80;;;8.63;;
13291;SDS011;6714;53.056;8.690;2022-11-20T14:09:57;9.33;;;8.00;;
13291;SDS011;6714;53.056;8.690;2022-11-20T14:12:39;10.67;;;7.83;;
13291;SDS011;6714;53.056;8.690;2022-11-20T14:15:27;9.77;;;8.07;;
13291;SDS011;6714;53.056;8.690;2022-11-20T14:18:13;9.50;;;8.33;;
13291;SDS011;6714;53.056;8.690;2022-11-20T14:20:56;10.30;;;8.17;;
13291;SDS011;6714;53.056;8.690;2022-11-20T14:23:41;10.00;;;7.20;;
13291;SDS011;6714;53.056;8.690;2022-11-20T14:26:24;9.40;;;8.20;;
13291;SDS011;6714;53.056;8.690;2022-11-20T14:29:10;10.37;;;8.40;;
13291;SDS011;6714;53.056;8.690;2022-11-20T14:31:55;12.43;;;8.70;;
13291;SDS011;6714;53.056;8.690;2022-11-20T14:34:39;11.47;;;8.90;;
13291;SDS011;6714;53.056;8.690;2022-11-20T14:37:23;10.30;;;7.40;;
13291;SDS011;6714;53.056;8.690;2022-11-20T14:40:21;11.03;;;8.43;;
13291;SDS011;6714;53.056;8.690;2022-11-20T14:43:15;9.33;;;8.20;;
13291;SDS011;6714;53.056;8.690;2022-11-20T14:45:58;11.47;;;8.67;;
13291;SDS011;6714;53.056;8.690;2022-11-20T14:48:43;10.47;;;8.37;;
13291;SDS011;6714;53.056;8.690;2022-11-20T14:51:27;11.77;;;9.00;;
13291;SDS011;6714;53.056;8.690;2022-11-20T14:54:10;12.13;;;9.43;;
13291;SDS011;6714;53.056;8.690;2022-11-20T14:56:56;11.37;;;9.63;;
13291;SDS011;6714;53.056;8.690;2022-11-20T14:59:38;10.17;;;8.27;;
13291;SDS011;6714;53.056;8.690;2022-11-20T15:02:20;11.77;;;8.97;;
13291;SDS011;6714;53.056;8.690;2022-11-20T15:05:06;12.30;;;9.23;;
13291;SDS011;6714;53.056;8.690;2022-11-20T15:07:49;11.63;;;9.40;;
13291;SDS011;6714;53.056;8.690;2022-11-20T15:10:31;11.47;;;9.30;;
13291;SDS011;6714;53.056;8.690;2022-11-20T15:13:14;11.80;;;9.10;;
13291;SDS011;6714;53.056;8.690;2022-11-20T15:15:57;10.93;;;9.10;;
13291;SDS011;6714;53.056;8.690;2022-11-20T15:18:40;11.47;;;9.13;;
13291;SDS011;6714;53.056;8.690;2022-11-20T15:21:24;11.13;;;8.97;;
13291;SDS011;6714;53.056;8.690;2022-11-20T15:24:07;11.80;;;9.60;;
13291;SDS011;6714;53.056;8.690;2022-11-20T15:26:50;12.17;;;10.23;;
13291;SDS011;6714;53.056;8.690;2022-11-20T15:29:32;10.33;;;8.90;;
13291;SDS011;6714;53.056;8.690;2022-11-20T15:32:14;12.57;;;9.57;;
13291;SDS011;6714;53.056;8.690;2022-11-20T15:34:56;11.93;;;9.50;;
13291;SDS011;6714;53.056;8.690;2022-11-20T15:37:40;13.83;;;10.10;;
13291;SDS011;6714;53.056;8.690;2022-11-20T15:40:23;15.57;;;11.13;;
13291;SDS011;6714;53.056;8.690;2022-11-20T15:43:05;14.30;;;10.37;;
13291;SDS011;6714;53.056;8.690;2022-11-20T15:45:48;15.23;;;10.83;;
13291;SDS011;6714;53.056;8.690;2022-11-20T15:48:31;12.20;;;9.10;;
13291;SDS011;6714;53.056;8.690;2022-11-20T15:51:17;11.57;;;10.00;;
13291;SDS011;6714;53.056;8.690;2022-11-20T15:54:05;16.33;;;11.93;;
13291;SDS011;6714;53.056;8.690;2022-11-20T15:56:51;13.67;;;10.20;;
13291;SDS011;6714;53.056;8.690;2022-11-20T15:59:33;13.50;;;10.17;;
13291;SDS011;6714;53.056;8.690;2022-11-20T16:02:19;12.20;;;9.40;;
13291;SDS011;6714;53.056;8.690;2022-11-20T16:05:01;11.83;;;9.90;;
13291;SDS011;6714;53.056;8.690;2022-11-20T16:07:44;14.37;;;11.40;;
13291;SDS011;6714;53.056;8.690;2022-11-20T16:10:27;13.53;;;10.00;;
13291;SDS011;6714;53.056;8.690;2022-11-20T16:13:11;11.57;;;9.40;;
13291;SDS011;6714;53.056;8.690;2022-11-20T16:16:20;12.80;;;10.63;;
13291;SDS011;6714;53.056;8.690;2022-11-20T16:19:03;13.27;;;10.50;;
13291;SDS011;6714;53.056;8.690;2022-11-20T16:21:45;11.70;;;10.13;;
13291;SDS011;6714;53.056;8.690;2022-11-20T16:24:28;12.73;;;10.20;;
13291;SDS011;6714;53.056;8.690;2022-11-20T16:27:11;16.50;;;12.13;;
13291;SDS011;6714;53.056;8.690;2022-11-20T16:29:54;15.47;;;11.73;;
13291;SDS011;6714;53.056;8.690;2022-11-20T16:32:36;15.03;;;12.03;;
13291;SDS011;6714;53.056;8.690;2022-11-20T16:35:18;16.00;;;11.50;;